sensor_id;sensor_type;location;lat;lon;timestamp;pressure;altitude;pressure_sealevel;temperature;humidity
79461;BME280;68929;42.666;23.324;2023-07-30T00:00:11;94370.06;;;23.36;nan
79461;BME280;68929;42.666;23.324;2023-07-30T00:02:36;94385.44;;;23.36;nan
79461;BME280;68929;42.666;23.324;2023-07-30T00:05:01;94389.88;;;23.27;nan
79461;BME280;68929;42.666;23.324;2023-07-30T00:07:27;94378.19;;;23.18;nan
79461;BME280;68929;42.666;23.324;2023-07-30T00:09:52;94371.91;;;23.22;nan
79461;BME280;68929;42.666;23.324;2023-07-30T00:12:18;94387.44;;;23.44;nan
79461;BME280;68929;42.666;23.324;2023-07-30T00:14:43;94392.31;;;23.42;nan
79461;BME280;68929;42.666;23.324;2023-07-30T00:17:09;94371.00;;;23.27;nan
79461;BME280;68929;42.666;23.324;2023-07-30T00:19:34;94386.41;;;23.53;nan
79461;BME280;68929;42.666;23.324;2023-07-30T00:22:00;94375.66;;;23.40;nan
79461;BME280;68929;42.666;23.324;2023-07-30T00:24:26;94375.84;;;23.43;nan
79461;BME280;68929;42.666;23.324;2023-07-30T00:26:51;94370.63;;;23.47;nan
79461;BME280;68929;42.666;23.324;2023-07-30T00:29:16;94354.44;;;23.47;nan
79461;BME280;68929;42.666;23.324;2023-07-30T00:31:43;94378.63;;;23.52;nan
79461;BME280;68929;42.666;23.324;2023-07-30T00:34:08;94372.41;;;23.24;nan
79461;BME280;68929;42.666;23.324;2023-07-30T00:36:34;94375.22;;;23.19;nan
79461;BME280;68929;42.666;23.324;2023-07-30T00:38:59;94371.59;;;22.96;nan
79461;BME280;68929;42.666;23.324;2023-07-30T00:41:24;94375.72;;;22.75;nan
79461;BME280;68929;42.666;23.324;2023-07-30T00:43:50;94374.22;;;22.83;nan
79461;BME280;68929;42.666;23.324;2023-07-30T00:46:16;94375.34;;;22.95;nan
79461;BME280;68929;42.666;23.324;2023-07-30T00:48:41;94369.34;;;22.85;nan
79461;BME280;68929;42.666;23.324;2023-07-30T00:51:07;94379.91;;;22.81;nan
79461;BME280;68929;42.666;23.324;2023-07-30T00:53:34;94366.69;;;22.66;nan
79461;BME280;68929;42.666;23.324;2023-07-30T00:56:02;94373.09;;;22.70;nan
79461;BME280;68929;42.666;23.324;2023-07-30T00:58:27;94377.53;;;22.80;nan
79461;BME280;68929;42.666;23.324;2023-07-30T01:00:53;94367.31;;;22.63;nan
79461;BME280;68929;42.666;23.324;2023-07-30T01:03:19;94381.84;;;22.62;nan
79461;BME280;68929;42.666;23.324;2023-07-30T01:05:45;94360.72;;;22.69;nan
79461;BME280;68929;42.666;23.324;2023-07-30T01:08:10;94384.88;;;23.07;nan
79461;BME280;68929;42.666;23.324;2023-07-30T01:10:38;94379.38;;;23.12;nan
79461;BME280;68929;42.666;23.324;2023-07-30T01:13:04;94374.72;;;22.71;nan
79461;BME280;68929;42.666;23.324;2023-07-30T01:15:30;94365.13;;;22.79;nan
79461;BME280;68929;42.666;23.324;2023-07-30T01:17:56;94392.13;;;22.92;nan
79461;BME280;68929;42.666;23.324;2023-07-30T01:20:22;94390.09;;;22.84;nan
79461;BME280;68929;42.666;23.324;2023-07-30T01:22:47;94392.28;;;22.82;nan
79461;BME280;68929;42.666;23.324;2023-07-30T01:25:14;94369.31;;;22.71;nan
79461;BME280;68929;42.666;23.324;2023-07-30T01:27:44;94384.13;;;22.87;nan
79461;BME280;68929;42.666;23.324;2023-07-30T01:30:25;94369.97;;;22.95;nan
79461;BME280;68929;42.666;23.324;2023-07-30T01:32:52;94372.78;;;22.90;nan
79461;BME280;68929;42.666;23.324;2023-07-30T01:35:24;94386.56;;;23.02;nan
79461;BME280;68929;42.666;23.324;2023-07-30T01:37:51;94391.97;;;23.02;nan
79461;BME280;68929;42.666;23.324;2023-07-30T01:40:16;94378.56;;;22.97;nan
79461;BME280;68929;42.666;23.324;2023-07-30T01:42:42;94393.06;;;23.15;nan
79461;BME280;68929;42.666;23.324;2023-07-30T01:45:08;94372.69;;;23.09;nan
79461;BME280;68929;42.666;23.324;2023-07-30T01:47:33;94391.56;;;23.23;nan
79461;BME280;68929;42.666;23.324;2023-07-30T01:49:59;94369.38;;;22.98;nan
79461;BME280;68929;42.666;23.324;2023-07-30T01:52:25;94392.19;;;23.20;nan
79461;BME280;68929;42.666;23.324;2023-07-30T01:54:50;94394.19;;;23.28;nan
79461;BME280;68929;42.666;23.324;2023-07-30T01:57:15;94393.56;;;23.31;nan
79461;BME280;68929;42.666;23.324;2023-07-30T01:59:41;94347.22;;;23.01;nan
79461;BME280;68929;42.666;23.324;2023-07-30T02:02:06;94379.56;;;23.01;nan
79461;BME280;68929;42.666;23.324;2023-07-30T02:04:33;94390.25;;;23.07;nan
79461;BME280;68929;42.666;23.324;2023-07-30T02:06:58;94375.72;;;22.75;nan
79461;BME280;68929;42.666;23.324;2023-07-30T02:09:23;94374.41;;;22.54;nan
79461;BME280;68929;42.666;23.324;2023-07-30T02:11:49;94395.84;;;22.64;nan
79461;BME280;68929;42.666;23.324;2023-07-30T02:14:14;94365.22;;;22.55;nan
79461;BME280;68929;42.666;23.324;2023-07-30T02:16:40;94382.38;;;22.64;nan
79461;BME280;68929;42.666;23.324;2023-07-30T02:19:05;94374.84;;;22.61;nan
79461;BME280;68929;42.666;23.324;2023-07-30T02:21:31;94364.38;;;22.60;nan
79461;BME280;68929;42.666;23.324;2023-07-30T02:23:59;94385.50;;;22.71;nan
79461;BME280;68929;42.666;23.324;2023-07-30T02:26:24;94382.38;;;22.64;nan
79461;BME280;68929;42.666;23.324;2023-07-30T02:28:49;94401.72;;;22.66;nan
79461;BME280;68929;42.666;23.324;2023-07-30T02:31:15;94385.41;;;22.58;nan
79461;BME280;68929;42.666;23.324;2023-07-30T02:33:40;94405.44;;;22.70;nan
79461;BME280;68929;42.666;23.324;2023-07-30T02:36:05;94396.53;;;22.51;nan
79461;BME280;68929;42.666;23.324;2023-07-30T02:38:31;94385.94;;;22.41;nan
79461;BME280;68929;42.666;23.324;2023-07-30T02:40:56;94405.72;;;22.50;nan
79461;BME280;68929;42.666;23.324;2023-07-30T02:43:22;94412.31;;;22.63;nan
79461;BME280;68929;42.666;23.324;2023-07-30T02:45:48;94402.16;;;22.55;nan
79461;BME280;68929;42.666;23.324;2023-07-30T02:48:13;94411.78;;;22.61;nan
79461;BME280;68929;42.666;23.324;2023-07-30T02:50:39;94398.47;;;22.51;nan
79461;BME280;68929;42.666;23.324;2023-07-30T02:53:04;94415.41;;;22.70;nan
79461;BME280;68929;42.666;23.324;2023-07-30T02:55:29;94397.56;;;22.55;nan
79461;BME280;68929;42.666;23.324;2023-07-30T02:57:55;94407.47;;;22.41;nan
79461;BME280;68929;42.666;23.324;2023-07-30T03:00:20;94408.59;;;22.59;nan
79461;BME280;68929;42.666;23.324;2023-07-30T03:02:46;94405.88;;;22.77;nan
79461;BME280;68929;42.666;23.324;2023-07-30T03:05:11;94403.53;;;22.52;nan
79461;BME280;68929;42.666;23.324;2023-07-30T03:07:36;94414.97;;;22.44;nan
79461;BME280;68929;42.666;23.324;2023-07-30T03:10:02;94398.16;;;22.52;nan
79461;BME280;68929;42.666;23.324;2023-07-30T03:12:27;94393.72;;;22.43;nan
79461;BME280;68929;42.666;23.324;2023-07-30T03:14:53;94417.44;;;22.59;nan
79461;BME280;68929;42.666;23.324;2023-07-30T03:17:18;94408.19;;;22.28;nan
79461;BME280;68929;42.666;23.324;2023-07-30T03:19:44;94390.38;;;22.13;nan
79461;BME280;68929;42.666;23.324;2023-07-30T03:22:09;94399.34;;;22.09;nan
79461;BME280;68929;42.666;23.324;2023-07-30T03:24:34;94387.97;;;22.31;nan
79461;BME280;68929;42.666;23.324;2023-07-30T03:27:00;94394.31;;;22.40;nan
79461;BME280;68929;42.666;23.324;2023-07-30T03:29:25;94418.31;;;22.17;nan
79461;BME280;68929;42.666;23.324;2023-07-30T03:31:51;94408.19;;;22.28;nan
79461;BME280;68929;42.666;23.324;2023-07-30T03:34:16;94395.63;;;22.23;nan
79461;BME280;68929;42.666;23.324;2023-07-30T03:36:41;94418.19;;;22.27;nan
79461;BME280;68929;42.666;23.324;2023-07-30T03:39:07;94416.16;;;22.19;nan
79461;BME280;68929;42.666;23.324;2023-07-30T03:41:32;94409.22;;;21.95;nan
79461;BME280;68929;42.666;23.324;2023-07-30T03:43:57;94397.88;;;21.98;nan
79461;BME280;68929;42.666;23.324;2023-07-30T03:46:23;94420.59;;;22.29;nan
79461;BME280;68929;42.666;23.324;2023-07-30T03:48:48;94413.38;;;22.43;nan
79461;BME280;68929;42.666;23.324;2023-07-30T03:51:13;94403.84;;;22.32;nan
79461;BME280;68929;42.666;23.324;2023-07-30T03:53:39;94418.56;;;22.40;nan
79461;BME280;68929;42.666;23.324;2023-07-30T03:56:04;94398.44;;;22.32;nan
79461;BME280;68929;42.666;23.324;2023-07-30T03:58:30;94429.69;;;22.70;nan
79461;BME280;68929;42.666;23.324;2023-07-30T04:00:56;94426.16;;;22.51;nan
79461;BME280;68929;42.666;23.324;2023-07-30T04:03:21;94407.91;;;22.48;nan
79461;BME280;68929;42.666;23.324;2023-07-30T04:05:50;94425.66;;;22.68;nan
79461;BME280;68929;42.666;23.324;2023-07-30T04:08:16;94419.41;;;22.72;nan
79461;BME280;68929;42.666;23.324;2023-07-30T04:10:41;94416.47;;;22.87;nan
79461;BME280;68929;42.666;23.324;2023-07-30T04:13:07;94440.88;;;23.10;nan
79461;BME280;68929;42.666;23.324;2023-07-30T04:15:33;94439.44;;;23.31;nan
79461;BME280;68929;42.666;23.324;2023-07-30T04:17:59;94429.97;;;23.33;nan
79461;BME280;68929;42.666;23.324;2023-07-30T04:20:24;94417.59;;;23.46;nan
79461;BME280;68929;42.666;23.324;2023-07-30T04:22:49;94427.81;;;23.49;nan
79461;BME280;68929;42.666;23.324;2023-07-30T04:25:15;94435.22;;;23.84;nan
79461;BME280;68929;42.666;23.324;2023-07-30T04:27:40;94416.00;;;23.72;nan
79461;BME280;68929;42.666;23.324;2023-07-30T04:30:06;94418.59;;;23.77;nan
79461;BME280;68929;42.666;23.324;2023-07-30T04:32:31;94442.81;;;24.09;nan
79461;BME280;68929;42.666;23.324;2023-07-30T04:34:57;94437.41;;;24.09;nan
79461;BME280;68929;42.666;23.324;2023-07-30T04:37:22;94436.00;;;24.12;nan
79461;BME280;68929;42.666;23.324;2023-07-30T04:39:49;94428.38;;;24.14;nan
79461;BME280;68929;42.666;23.324;2023-07-30T04:42:15;94443.00;;;24.13;nan
79461;BME280;68929;42.666;23.324;2023-07-30T04:44:40;94446.56;;;24.35;nan
79461;BME280;68929;42.666;23.324;2023-07-30T04:47:06;94445.78;;;24.21;nan
79461;BME280;68929;42.666;23.324;2023-07-30T04:49:32;94440.63;;;24.11;nan
79461;BME280;68929;42.666;23.324;2023-07-30T04:51:58;94437.38;;;24.23;nan
79461;BME280;68929;42.666;23.324;2023-07-30T04:54:23;94442.16;;;24.39;nan
79461;BME280;68929;42.666;23.324;2023-07-30T04:56:49;94434.09;;;24.12;nan
79461;BME280;68929;42.666;23.324;2023-07-30T04:59:14;94438.94;;;24.37;nan
79461;BME280;68929;42.666;23.324;2023-07-30T05:01:39;94444.81;;;24.17;nan
79461;BME280;68929;42.666;23.324;2023-07-30T05:04:05;94440.41;;;24.08;nan
79461;BME280;68929;42.666;23.324;2023-07-30T05:06:30;94437.19;;;24.19;nan
79461;BME280;68929;42.666;23.324;2023-07-30T05:08:56;94451.66;;;24.37;nan
79461;BME280;68929;42.666;23.324;2023-07-30T05:11:21;94433.00;;;24.13;nan
79461;BME280;68929;42.666;23.324;2023-07-30T05:13:46;94433.38;;;24.20;nan
79461;BME280;68929;42.666;23.324;2023-07-30T05:16:12;94438.19;;;24.23;nan
79461;BME280;68929;42.666;23.324;2023-07-30T05:18:37;94440.75;;;24.28;nan
79461;BME280;68929;42.666;23.324;2023-07-30T05:21:02;94445.88;;;24.30;nan
79461;BME280;68929;42.666;23.324;2023-07-30T05:23:28;94426.41;;;24.19;nan
79461;BME280;68929;42.666;23.324;2023-07-30T05:25:53;94450.50;;;24.51;nan
79461;BME280;68929;42.666;23.324;2023-07-30T05:28:19;94451.41;;;24.47;nan
79461;BME280;68929;42.666;23.324;2023-07-30T05:30:44;94445.81;;;24.57;nan
79461;BME280;68929;42.666;23.324;2023-07-30T05:33:09;94414.81;;;24.05;nan
79461;BME280;68929;42.666;23.324;2023-07-30T05:35:35;94432.16;;;24.26;nan
79461;BME280;68929;42.666;23.324;2023-07-30T05:38:00;94437.00;;;24.51;nan
79461;BME280;68929;42.666;23.324;2023-07-30T05:40:26;94445.44;;;24.72;nan
79461;BME280;68929;42.666;23.324;2023-07-30T05:42:51;94453.66;;;24.81;nan
79461;BME280;68929;42.666;23.324;2023-07-30T05:45:17;94450.06;;;24.72;nan
79461;BME280;68929;42.666;23.324;2023-07-30T05:47:42;94432.72;;;24.50;nan
79461;BME280;68929;42.666;23.324;2023-07-30T05:50:08;94454.03;;;24.88;nan
79461;BME280;68929;42.666;23.324;2023-07-30T05:52:33;94452.06;;;24.80;nan
79461;BME280;68929;42.666;23.324;2023-07-30T05:54:59;94452.66;;;24.77;nan
79461;BME280;68929;42.666;23.324;2023-07-30T05:57:25;94453.47;;;24.99;nan
79461;BME280;68929;42.666;23.324;2023-07-30T05:59:50;94436.31;;;25.26;nan
79461;BME280;68929;42.666;23.324;2023-07-30T06:02:16;94451.59;;;25.53;nan
79461;BME280;68929;42.666;23.324;2023-07-30T06:04:41;94448.72;;;25.49;nan
79461;BME280;68929;42.666;23.324;2023-07-30T06:07:07;94461.56;;;25.44;nan
79461;BME280;68929;42.666;23.324;2023-07-30T06:09:32;94465.28;;;25.78;nan
79461;BME280;68929;42.666;23.324;2023-07-30T06:11:58;94451.44;;;25.88;nan
79461;BME280;68929;42.666;23.324;2023-07-30T06:14:24;94439.66;;;26.01;nan
79461;BME280;68929;42.666;23.324;2023-07-30T06:16:50;94449.38;;;25.94;nan
79461;BME280;68929;42.666;23.324;2023-07-30T06:19:15;94456.13;;;26.05;nan
79461;BME280;68929;42.666;23.324;2023-07-30T06:21:41;94442.31;;;26.24;nan
79461;BME280;68929;42.666;23.324;2023-07-30T06:24:06;94445.84;;;26.33;nan
79461;BME280;68929;42.666;23.324;2023-07-30T06:26:32;94455.09;;;26.40;nan
79461;BME280;68929;42.666;23.324;2023-07-30T06:28:57;94458.63;;;26.41;nan
79461;BME280;68929;42.666;23.324;2023-07-30T06:31:23;94441.59;;;26.74;nan
79461;BME280;68929;42.666;23.324;2023-07-30T06:33:48;94461.88;;;26.94;nan
79461;BME280;68929;42.666;23.324;2023-07-30T06:36:14;94439.34;;;27.02;nan
79461;BME280;68929;42.666;23.324;2023-07-30T06:38:39;94452.44;;;26.91;nan
79461;BME280;68929;42.666;23.324;2023-07-30T06:41:04;94441.41;;;27.22;nan
79461;BME280;68929;42.666;23.324;2023-07-30T06:43:30;94434.75;;;26.85;nan
79461;BME280;68929;42.666;23.324;2023-07-30T06:45:55;94419.88;;;27.00;nan
79461;BME280;68929;42.666;23.324;2023-07-30T06:48:21;94411.88;;;27.21;nan
79461;BME280;68929;42.666;23.324;2023-07-30T06:50:46;94420.28;;;27.53;nan
79461;BME280;68929;42.666;23.324;2023-07-30T06:53:11;94433.72;;;27.33;nan
79461;BME280;68929;42.666;23.324;2023-07-30T06:55:37;94420.94;;;27.33;nan
79461;BME280;68929;42.666;23.324;2023-07-30T06:58:02;94420.19;;;27.70;nan
79461;BME280;68929;42.666;23.324;2023-07-30T07:00:27;94428.72;;;28.07;nan
79461;BME280;68929;42.666;23.324;2023-07-30T07:02:54;94420.72;;;28.02;nan
79461;BME280;68929;42.666;23.324;2023-07-30T07:05:19;94424.50;;;28.18;nan
79461;BME280;68929;42.666;23.324;2023-07-30T07:07:45;94419.59;;;28.32;nan
79461;BME280;68929;42.666;23.324;2023-07-30T07:10:10;94419.31;;;28.25;nan
79461;BME280;68929;42.666;23.324;2023-07-30T07:12:39;94416.53;;;28.33;nan
79461;BME280;68929;42.666;23.324;2023-07-30T07:15:05;94416.81;;;28.20;nan
79461;BME280;68929;42.666;23.324;2023-07-30T07:17:30;94412.19;;;28.41;nan
79461;BME280;68929;42.666;23.324;2023-07-30T07:19:57;94408.09;;;28.35;nan
79461;BME280;68929;42.666;23.324;2023-07-30T07:22:22;94391.47;;;28.57;nan
79461;BME280;68929;42.666;23.324;2023-07-30T07:24:48;94398.81;;;28.77;nan
79461;BME280;68929;42.666;23.324;2023-07-30T07:27:13;94399.59;;;28.98;nan
79461;BME280;68929;42.666;23.324;2023-07-30T07:29:39;94400.63;;;29.27;nan
79461;BME280;68929;42.666;23.324;2023-07-30T07:32:05;94384.22;;;29.14;nan
79461;BME280;68929;42.666;23.324;2023-07-30T07:34:30;94384.03;;;29.19;nan
79461;BME280;68929;42.666;23.324;2023-07-30T07:36:56;94397.31;;;29.00;nan
79461;BME280;68929;42.666;23.324;2023-07-30T07:39:21;94381.91;;;29.04;nan
79461;BME280;68929;42.666;23.324;2023-07-30T07:41:46;94393.16;;;29.48;nan
79461;BME280;68929;42.666;23.324;2023-07-30T07:44:12;94396.53;;;29.20;nan
79461;BME280;68929;42.666;23.324;2023-07-30T07:46:37;94375.94;;;29.11;nan
79461;BME280;68929;42.666;23.324;2023-07-30T07:49:02;94376.53;;;29.16;nan
79461;BME280;68929;42.666;23.324;2023-07-30T07:51:28;94370.28;;;29.61;nan
79461;BME280;68929;42.666;23.324;2023-07-30T07:53:53;94376.00;;;29.80;nan
79461;BME280;68929;42.666;23.324;2023-07-30T07:56:19;94362.56;;;30.23;nan
79461;BME280;68929;42.666;23.324;2023-07-30T07:58:44;94384.72;;;30.34;nan
79461;BME280;68929;42.666;23.324;2023-07-30T08:01:10;94370.84;;;30.15;nan
79461;BME280;68929;42.666;23.324;2023-07-30T08:03:35;94383.28;;;30.12;nan
79461;BME280;68929;42.666;23.324;2023-07-30T08:06:00;94350.22;;;29.77;nan
79461;BME280;68929;42.666;23.324;2023-07-30T08:08:26;94382.34;;;30.32;nan
79461;BME280;68929;42.666;23.324;2023-07-30T08:10:52;94375.00;;;30.60;nan
79461;BME280;68929;42.666;23.324;2023-07-30T08:13:18;94376.69;;;31.05;nan
79461;BME280;68929;42.666;23.324;2023-07-30T08:15:43;94369.59;;;31.31;nan
79461;BME280;68929;42.666;23.324;2023-07-30T08:18:09;94372.41;;;31.47;nan
79461;BME280;68929;42.666;23.324;2023-07-30T08:20:34;94356.31;;;31.30;nan
79461;BME280;68929;42.666;23.324;2023-07-30T08:23:00;94375.59;;;31.21;nan
79461;BME280;68929;42.666;23.324;2023-07-30T08:25:25;94356.09;;;31.07;nan
79461;BME280;68929;42.666;23.324;2023-07-30T08:27:50;94353.41;;;31.23;nan
79461;BME280;68929;42.666;23.324;2023-07-30T08:30:16;94365.63;;;31.72;nan
79461;BME280;68929;42.666;23.324;2023-07-30T08:32:41;94344.28;;;31.46;nan
79461;BME280;68929;42.666;23.324;2023-07-30T08:35:08;94364.91;;;31.75;nan
79461;BME280;68929;42.666;23.324;2023-07-30T08:37:34;94355.84;;;31.71;nan
79461;BME280;68929;42.666;23.324;2023-07-30T08:39:59;94335.75;;;31.79;nan
79461;BME280;68929;42.666;23.324;2023-07-30T08:42:24;94354.25;;;32.01;nan
79461;BME280;68929;42.666;23.324;2023-07-30T08:44:50;94344.19;;;32.05;nan
79461;BME280;68929;42.666;23.324;2023-07-30T08:47:15;94337.72;;;32.29;nan
79461;BME280;68929;42.666;23.324;2023-07-30T08:49:41;94344.19;;;32.40;nan
79461;BME280;68929;42.666;23.324;2023-07-30T08:52:08;94315.34;;;32.43;nan
79461;BME280;68929;42.666;23.324;2023-07-30T08:54:36;94353.44;;;32.67;nan
79461;BME280;68929;42.666;23.324;2023-07-30T08:57:02;94349.53;;;32.68;nan
79461;BME280;68929;42.666;23.324;2023-07-30T08:59:31;94338.09;;;32.81;nan
79461;BME280;68929;42.666;23.324;2023-07-30T09:01:59;94334.78;;;32.38;nan
79461;BME280;68929;42.666;23.324;2023-07-30T09:04:27;94340.00;;;32.62;nan
79461;BME280;68929;42.666;23.324;2023-07-30T09:06:54;94327.78;;;32.56;nan
79461;BME280;68929;42.666;23.324;2023-07-30T09:09:19;94339.63;;;32.98;nan
79461;BME280;68929;42.666;23.324;2023-07-30T09:11:51;94326.78;;;33.02;nan
79461;BME280;68929;42.666;23.324;2023-07-30T09:14:19;94338.09;;;32.81;nan
79461;BME280;68929;42.666;23.324;2023-07-30T09:16:45;94317.25;;;32.96;nan
79461;BME280;68929;42.666;23.324;2023-07-30T09:19:16;94315.38;;;33.42;nan
79461;BME280;68929;42.666;23.324;2023-07-30T09:21:41;94333.56;;;33.72;nan
79461;BME280;68929;42.666;23.324;2023-07-30T09:24:07;94329.97;;;33.95;nan
79461;BME280;68929;42.666;23.324;2023-07-30T09:26:42;94334.88;;;33.59;nan
79461;BME280;68929;42.666;23.324;2023-07-30T09:29:11;94319.41;;;33.70;nan
79461;BME280;68929;42.666;23.324;2023-07-30T09:31:50;94324.38;;;33.00;nan
79461;BME280;68929;42.666;23.324;2023-07-30T09:34:23;94310.41;;;32.86;nan
79461;BME280;68929;42.666;23.324;2023-07-30T09:36:53;94324.88;;;33.25;nan
79461;BME280;68929;42.666;23.324;2023-07-30T09:39:25;94307.38;;;33.52;nan
79461;BME280;68929;42.666;23.324;2023-07-30T09:41:52;94300.69;;;33.76;nan
79461;BME280;68929;42.666;23.324;2023-07-30T09:44:19;94298.19;;;34.13;nan
79461;BME280;68929;42.666;23.324;2023-07-30T09:46:47;94310.69;;;34.66;nan
79461;BME280;68929;42.666;23.324;2023-07-30T09:49:13;94284.22;;;34.25;nan
79461;BME280;68929;42.666;23.324;2023-07-30T09:51:39;94300.16;;;34.42;nan
79461;BME280;68929;42.666;23.324;2023-07-30T09:54:12;94294.09;;;34.59;nan
79461;BME280;68929;42.666;23.324;2023-07-30T09:56:39;94290.25;;;34.97;nan
79461;BME280;68929;42.666;23.324;2023-07-30T09:59:06;94292.81;;;34.79;nan
79461;BME280;68929;42.666;23.324;2023-07-30T10:01:32;94279.75;;;35.02;nan
79461;BME280;68929;42.666;23.324;2023-07-30T10:04:05;94289.28;;;35.15;nan
79461;BME280;68929;42.666;23.324;2023-07-30T10:06:33;94283.13;;;35.66;nan
79461;BME280;68929;42.666;23.324;2023-07-30T10:09:01;94278.84;;;36.26;nan
79461;BME280;68929;42.666;23.324;2023-07-30T10:11:27;94287.31;;;36.61;nan
79461;BME280;68929;42.666;23.324;2023-07-30T10:13:53;94275.56;;;36.68;nan
79461;BME280;68929;42.666;23.324;2023-07-30T10:16:25;94263.84;;;36.88;nan
79461;BME280;68929;42.666;23.324;2023-07-30T10:18:55;94271.91;;;37.57;nan
79461;BME280;68929;42.666;23.324;2023-07-30T10:21:22;94282.16;;;37.92;nan
79461;BME280;68929;42.666;23.324;2023-07-30T10:24:03;94271.03;;;38.55;nan
79461;BME280;68929;42.666;23.324;2023-07-30T10:26:33;94266.66;;;38.65;nan
79461;BME280;68929;42.666;23.324;2023-07-30T10:29:16;94261.47;;;38.81;nan
79461;BME280;68929;42.666;23.324;2023-07-30T10:31:48;94238.50;;;38.98;nan
79461;BME280;68929;42.666;23.324;2023-07-30T10:34:14;94250.22;;;39.23;nan
79461;BME280;68929;42.666;23.324;2023-07-30T10:36:48;94246.44;;;39.61;nan
79461;BME280;68929;42.666;23.324;2023-07-30T10:39:19;94243.13;;;39.80;nan
79461;BME280;68929;42.666;23.324;2023-07-30T10:41:57;94239.50;;;40.65;nan
79461;BME280;68929;42.666;23.324;2023-07-30T10:44:25;94246.81;;;41.12;nan
79461;BME280;68929;42.666;23.324;2023-07-30T10:46:52;94239.19;;;41.23;nan
79461;BME280;68929;42.666;23.324;2023-07-30T10:49:18;94229.22;;;40.99;nan
79461;BME280;68929;42.666;23.324;2023-07-30T10:51:43;94238.38;;;41.23;nan
79461;BME280;68929;42.666;23.324;2023-07-30T10:54:09;94229.03;;;41.67;nan
79461;BME280;68929;42.666;23.324;2023-07-30T10:56:35;94223.47;;;41.90;nan
79461;BME280;68929;42.666;23.324;2023-07-30T10:59:06;94215.66;;;42.51;nan
79461;BME280;68929;42.666;23.324;2023-07-30T11:01:36;94214.59;;;42.45;nan
79461;BME280;68929;42.666;23.324;2023-07-30T11:04:06;94204.69;;;42.21;nan
79461;BME280;68929;42.666;23.324;2023-07-30T11:06:32;94208.84;;;41.66;nan
79461;BME280;68929;42.666;23.324;2023-07-30T11:08:57;94207.06;;;41.99;nan
79461;BME280;68929;42.666;23.324;2023-07-30T11:11:23;94205.94;;;42.39;nan
79461;BME280;68929;42.666;23.324;2023-07-30T11:13:50;94190.75;;;42.24;nan
79461;BME280;68929;42.666;23.324;2023-07-30T11:16:16;94198.28;;;42.86;nan
79461;BME280;68929;42.666;23.324;2023-07-30T11:18:42;94190.22;;;42.72;nan
79461;BME280;68929;42.666;23.324;2023-07-30T11:21:10;94185.91;;;43.23;nan
79461;BME280;68929;42.666;23.324;2023-07-30T11:23:37;94177.94;;;42.30;nan
79461;BME280;68929;42.666;23.324;2023-07-30T11:26:05;94178.75;;;42.50;nan
79461;BME280;68929;42.666;23.324;2023-07-30T11:28:33;94185.41;;;41.67;nan
79461;BME280;68929;42.666;23.324;2023-07-30T11:31:01;94183.97;;;41.32;nan
79461;BME280;68929;42.666;23.324;2023-07-30T11:33:27;94177.63;;;40.75;nan
79461;BME280;68929;42.666;23.324;2023-07-30T11:35:54;94150.38;;;40.70;nan
79461;BME280;68929;42.666;23.324;2023-07-30T11:38:21;94167.22;;;41.86;nan
79461;BME280;68929;42.666;23.324;2023-07-30T11:40:47;94171.50;;;42.33;nan
79461;BME280;68929;42.666;23.324;2023-07-30T11:43:13;94164.16;;;42.03;nan
79461;BME280;68929;42.666;23.324;2023-07-30T11:45:39;94157.22;;;42.35;nan
79461;BME280;68929;42.666;23.324;2023-07-30T11:48:11;94155.56;;;42.76;nan
79461;BME280;68929;42.666;23.324;2023-07-30T11:51:02;94143.47;;;43.03;nan
79461;BME280;68929;42.666;23.324;2023-07-30T11:53:46;94140.81;;;43.80;nan
79461;BME280;68929;42.666;23.324;2023-07-30T11:56:20;94139.00;;;43.73;nan
79461;BME280;68929;42.666;23.324;2023-07-30T11:58:47;94136.63;;;43.88;nan
79461;BME280;68929;42.666;23.324;2023-07-30T12:01:17;94135.81;;;42.90;nan
79461;BME280;68929;42.666;23.324;2023-07-30T12:03:42;94132.34;;;43.03;nan
79461;BME280;68929;42.666;23.324;2023-07-30T12:06:11;94123.41;;;44.08;nan
79461;BME280;68929;42.666;23.324;2023-07-30T12:08:37;94126.41;;;44.13;nan
79461;BME280;68929;42.666;23.324;2023-07-30T12:11:06;94116.13;;;42.81;nan
79461;BME280;68929;42.666;23.324;2023-07-30T12:13:32;94116.16;;;42.03;nan
79461;BME280;68929;42.666;23.324;2023-07-30T12:15:58;94101.19;;;41.97;nan
79461;BME280;68929;42.666;23.324;2023-07-30T12:18:25;94109.44;;;43.63;nan
79461;BME280;68929;42.666;23.324;2023-07-30T12:20:52;94091.88;;;43.66;nan
79461;BME280;68929;42.666;23.324;2023-07-30T12:23:19;94101.72;;;43.99;nan
79461;BME280;68929;42.666;23.324;2023-07-30T12:25:45;94093.47;;;44.66;nan
79461;BME280;68929;42.666;23.324;2023-07-30T12:28:11;94090.03;;;45.62;nan
79461;BME280;68929;42.666;23.324;2023-07-30T12:30:37;94092.06;;;46.18;nan
79461;BME280;68929;42.666;23.324;2023-07-30T12:33:03;94085.00;;;45.45;nan
79461;BME280;68929;42.666;23.324;2023-07-30T12:35:30;94083.78;;;43.72;nan
79461;BME280;68929;42.666;23.324;2023-07-30T12:37:55;94065.06;;;42.20;nan
79461;BME280;68929;42.666;23.324;2023-07-30T12:40:21;94078.75;;;40.68;nan
79461;BME280;68929;42.666;23.324;2023-07-30T12:42:46;94077.69;;;39.99;nan
79461;BME280;68929;42.666;23.324;2023-07-30T12:45:11;94069.66;;;38.82;nan
79461;BME280;68929;42.666;23.324;2023-07-30T12:47:37;94048.84;;;37.87;nan
79461;BME280;68929;42.666;23.324;2023-07-30T12:50:03;94062.63;;;38.74;nan
79461;BME280;68929;42.666;23.324;2023-07-30T12:52:29;94059.47;;;40.88;nan
79461;BME280;68929;42.666;23.324;2023-07-30T12:54:54;94038.56;;;41.76;nan
79461;BME280;68929;42.666;23.324;2023-07-30T12:57:20;94050.16;;;43.34;nan
79461;BME280;68929;42.666;23.324;2023-07-30T12:59:45;94054.25;;;44.31;nan
79461;BME280;68929;42.666;23.324;2023-07-30T13:02:11;94052.78;;;44.14;nan
79461;BME280;68929;42.666;23.324;2023-07-30T13:04:36;94049.84;;;44.47;nan